Time;durP1;ratioP1;P1;durP2;ratioP2;P2;SDS_P1;SDS_P2;PMS_P1;PMS_P2;Temp;Humidity;BMP_temperature;BMP_pressure;BME280_temperature;BME280_humidity;BME280_pressure;Samples;Min_cycle;Max_cycle;Signal;HPM_P1;HPM_P2
2023/07/10 00:01:40;;;;;;;12.15;6.53;;;;;;;;;;5025930;28;20040;-65
2023/07/10 00:04:14;;;;;;;11.90;7.22;;;;;;;;;;5016184;28;20052;-66
2023/07/10 00:06:41;;;;;;;11.32;6.78;;;;;;;;;;5034095;28;20033;-66
2023/07/10 00:09:07;;;;;;;11.80;6.45;;;;;;;;;;5027170;28;20122;-64
2023/07/10 00:11:34;;;;;;;11.35;6.55;;;;;;;;;;5024695;28;20528;-65
2023/07/10 00:14:01;;;;;;;11.45;7.00;;;;;;;;;;5025386;28;20029;-64
2023/07/10 00:16:29;;;;;;;13.25;7.05;;;;;;;;;;5025265;28;20029;-65
2023/07/10 00:18:55;;;;;;;11.98;7.38;;;;;;;;;;5027983;28;20138;-66
2023/07/10 00:21:22;;;;;;;10.95;6.88;;;;;;;;;;5027101;28;20800;-66
2023/07/10 00:23:49;;;;;;;11.75;6.78;;;;;;;;;;5025378;28;20049;-64
2023/07/10 00:26:21;;;;;;;10.43;6.18;;;;;;;;;;5032113;28;20128;-63
2023/07/10 00:28:52;;;;;;;11.25;6.13;;;;;;;;;;5025718;28;20052;-64
2023/07/10 00:31:18;;;;;;;9.88;5.63;;;;;;;;;;5041557;28;20041;-66
2023/07/10 00:33:47;;;;;;;10.32;5.32;;;;;;;;;;5017161;28;20044;-64
2023/07/10 00:36:33;;;;;;;9.90;5.63;;;;;;;;;;4980853;28;20041;-64
2023/07/10 00:39:15;;;;;;;11.25;5.43;;;;;;;;;;4982470;28;20038;-65
2023/07/10 00:41:43;;;;;;;8.55;4.90;;;;;;;;;;4964351;28;20038;-65
2023/07/10 00:44:10;;;;;;;8.93;4.93;;;;;;;;;;4982724;28;20100;-67
2023/07/10 00:46:55;;;;;;;9.07;5.20;;;;;;;;;;4982145;28;20049;-64
2023/07/10 00:49:21;;;;;;;10.30;5.72;;;;;;;;;;4979854;28;20174;-64
2023/07/10 00:52:00;;;;;;;12.98;5.82;;;;;;;;;;4980131;28;20046;-64
2023/07/10 00:54:32;;;;;;;10.15;5.80;;;;;;;;;;4979662;28;20041;-64
2023/07/10 00:56:59;;;;;;;10.20;5.78;;;;;;;;;;4979616;28;20096;-66
2023/07/10 00:59:28;;;;;;;9.57;5.53;;;;;;;;;;4981263;28;20537;-64
2023/07/10 01:02:13;;;;;;;10.10;6.20;;;;;;;;;;4983207;28;20045;-63
2023/07/10 01:04:42;;;;;;;9.30;5.65;;;;;;;;;;4981730;28;20054;-64
2023/07/10 01:07:09;;;;;;;13.55;6.13;;;;;;;;;;4998104;28;20094;-65
2023/07/10 01:09:36;;;;;;;12.30;5.60;;;;;;;;;;5026843;28;20037;-63
2023/07/10 01:12:05;;;;;;;11.38;5.85;;;;;;;;;;5002014;28;20517;-67
2023/07/10 01:14:36;;;;;;;12.68;5.95;;;;;;;;;;5023278;28;20041;-64
2023/07/10 01:17:04;;;;;;;8.68;5.20;;;;;;;;;;5029206;28;20048;-63
2023/07/10 01:19:31;;;;;;;8.45;5.03;;;;;;;;;;5040354;28;20073;-65
2023/07/10 01:21:58;;;;;;;9.18;5.35;;;;;;;;;;5025570;28;20033;-64
2023/07/10 01:24:25;;;;;;;11.35;5.88;;;;;;;;;;5023686;28;20040;-65
2023/07/10 01:26:52;;;;;;;8.90;5.07;;;;;;;;;;5025669;28;20611;-63
2023/07/10 01:29:28;;;;;;;7.95;4.68;;;;;;;;;;4994987;28;20045;-62
2023/07/10 01:31:55;;;;;;;9.02;4.95;;;;;;;;;;5027460;28;20041;-63
2023/07/10 01:34:36;;;;;;;9.93;5.13;;;;;;;;;;5027297;28;20541;-63
2023/07/10 01:37:05;;;;;;;9.68;4.65;;;;;;;;;;5029176;28;20041;-62
2023/07/10 01:39:46;;;;;;;8.32;3.92;;;;;;;;;;5025074;28;20037;-63
2023/07/10 01:42:13;;;;;;;7.32;3.60;;;;;;;;;;5031086;28;20037;-63
2023/07/10 01:44:41;;;;;;;6.20;3.42;;;;;;;;;;5039349;28;20041;-61
2023/07/10 01:47:08;;;;;;;8.10;3.70;;;;;;;;;;5025941;28;20037;-64
2023/07/10 01:49:49;;;;;;;6.43;3.60;;;;;;;;;;5001573;28;20056;-63
2023/07/10 01:52:17;;;;;;;7.10;3.90;;;;;;;;;;5026681;28;20049;-63
2023/07/10 01:54:44;;;;;;;6.70;3.70;;;;;;;;;;5025652;28;20600;-65
2023/07/10 01:57:12;;;;;;;6.90;3.50;;;;;;;;;;5023660;28;20040;-61
2023/07/10 01:59:38;;;;;;;7.57;3.92;;;;;;;;;;5024315;28;20148;-65
2023/07/10 02:02:06;;;;;;;7.32;3.70;;;;;;;;;;5030216;28;20159;-61
2023/07/10 02:04:32;;;;;;;8.10;4.28;;;;;;;;;;5030273;28;20052;-64
2023/07/10 02:06:59;;;;;;;8.35;3.78;;;;;;;;;;5026291;28;20080;-61
2023/07/10 02:09:28;;;;;;;6.85;3.85;;;;;;;;;;5003474;28;20049;-60
2023/07/10 02:11:55;;;;;;;6.13;3.50;;;;;;;;;;5027367;28;20116;-61
2023/07/10 02:14:22;;;;;;;7.57;3.72;;;;;;;;;;5004936;28;20037;-61
2023/07/10 02:16:48;;;;;;;7.38;3.92;;;;;;;;;;5024471;28;20079;-63
2023/07/10 02:19:15;;;;;;;7.80;4.10;;;;;;;;;;5026787;28;20501;-61
2023/07/10 02:21:41;;;;;;;8.13;4.65;;;;;;;;;;5024913;28;20095;-60
2023/07/10 02:24:09;;;;;;;7.22;3.97;;;;;;;;;;5027669;28;20178;-63
2023/07/10 02:26:36;;;;;;;9.30;4.50;;;;;;;;;;5026680;28;20060;-59
2023/07/10 02:29:02;;;;;;;6.78;3.95;;;;;;;;;;5032590;28;20051;-62
2023/07/10 02:31:30;;;;;;;7.20;4.38;;;;;;;;;;5029438;28;20041;-62
2023/07/10 02:33:57;;;;;;;7.13;4.40;;;;;;;;;;5030852;28;20045;-64
2023/07/10 02:36:24;;;;;;;6.50;4.03;;;;;;;;;;5023151;28;20218;-67
2023/07/10 02:38:51;;;;;;;6.53;3.72;;;;;;;;;;5032472;28;20156;-64
2023/07/10 02:41:17;;;;;;;6.18;3.47;;;;;;;;;;5033001;28;20052;-63
2023/07/10 02:43:44;;;;;;;6.72;3.78;;;;;;;;;;5031039;28;20090;-64
2023/07/10 02:46:10;;;;;;;6.60;3.38;;;;;;;;;;5031260;28;20048;-64
2023/07/10 02:48:37;;;;;;;6.97;3.50;;;;;;;;;;5024938;28;20037;-64
2023/07/10 02:51:04;;;;;;;6.07;3.50;;;;;;;;;;5031990;28;20077;-66
2023/07/10 02:53:34;;;;;;;6.25;3.28;;;;;;;;;;5031836;28;20037;-63
2023/07/10 02:56:01;;;;;;;6.75;3.72;;;;;;;;;;5029100;28;20033;-63
2023/07/10 02:58:27;;;;;;;6.75;3.58;;;;;;;;;;5028860;28;20052;-63
2023/07/10 03:01:01;;;;;;;7.15;3.72;;;;;;;;;;5032315;28;20038;-64
2023/07/10 03:03:27;;;;;;;7.00;3.53;;;;;;;;;;5032055;28;20041;-65
2023/07/10 03:05:55;;;;;;;7.57;3.80;;;;;;;;;;5031876;28;20060;-67
2023/07/10 03:08:22;;;;;;;9.70;3.67;;;;;;;;;;5030702;28;20155;-65
2023/07/10 03:10:48;;;;;;;9.32;3.55;;;;;;;;;;5012459;28;20048;-61
2023/07/10 03:13:15;;;;;;;6.93;3.90;;;;;;;;;;5026710;28;20419;-62
2023/07/10 03:15:42;;;;;;;7.40;3.58;;;;;;;;;;5029906;28;20059;-61
2023/07/10 03:18:08;;;;;;;6.60;3.78;;;;;;;;;;5029409;28;20494;-59
2023/07/10 03:20:39;;;;;;;7.43;3.65;;;;;;;;;;5032828;28;20100;-61
2023/07/10 03:23:06;;;;;;;9.82;3.83;;;;;;;;;;5031785;28;20091;-60
2023/07/10 03:25:34;;;;;;;7.05;4.03;;;;;;;;;;5029833;28;20182;-62
2023/07/10 03:28:02;;;;;;;7.30;4.05;;;;;;;;;;5042900;28;20029;-63
2023/07/10 03:30:28;;;;;;;8.45;3.83;;;;;;;;;;5035341;28;20072;-62
2023/07/10 03:32:55;;;;;;;7.13;3.78;;;;;;;;;;5030364;28;20041;-62
2023/07/10 03:35:22;;;;;;;6.35;3.30;;;;;;;;;;5013944;28;20120;-63
2023/07/10 03:37:48;;;;;;;6.85;3.90;;;;;;;;;;5029761;28;20037;-62
2023/07/10 03:40:15;;;;;;;7.85;4.00;;;;;;;;;;5029037;28;20519;-61
2023/07/10 03:42:41;;;;;;;8.93;4.35;;;;;;;;;;5030697;28;20151;-63
2023/07/10 03:45:08;;;;;;;7.93;4.28;;;;;;;;;;5030052;28;20052;-61
2023/07/10 03:47:35;;;;;;;8.25;4.30;;;;;;;;;;5033025;28;20029;-61
2023/07/10 03:50:02;;;;;;;7.47;4.32;;;;;;;;;;5030390;28;20057;-62
2023/07/10 03:52:28;;;;;;;6.97;3.88;;;;;;;;;;5027736;28;20490;-60
2023/07/10 03:54:55;;;;;;;7.63;4.00;;;;;;;;;;5030416;28;20048;-63
2023/07/10 03:57:21;;;;;;;7.97;3.58;;;;;;;;;;5032421;28;20041;-61
2023/07/10 03:59:48;;;;;;;13.95;3.97;;;;;;;;;;5029710;28;20044;-59
2023/07/10 04:02:14;;;;;;;7.32;4.25;;;;;;;;;;5028193;28;20116;-59
2023/07/10 04:04:41;;;;;;;7.75;4.18;;;;;;;;;;5030680;28;20480;-62
2023/07/10 04:07:08;;;;;;;7.90;4.70;;;;;;;;;;5029050;28;20112;-63
2023/07/10 04:09:34;;;;;;;7.90;4.60;;;;;;;;;;5027929;28;20069;-62
2023/07/10 04:12:01;;;;;;;8.52;4.47;;;;;;;;;;5022883;28;20064;-63
2023/07/10 04:14:29;;;;;;;9.05;5.18;;;;;;;;;;5028553;28;20041;-62
2023/07/10 04:16:55;;;;;;;11.27;4.47;;;;;;;;;;5021418;28;20044;-60
2023/07/10 04:19:22;;;;;;;8.23;4.57;;;;;;;;;;5028599;28;20053;-61
2023/07/10 04:21:49;;;;;;;10.65;4.65;;;;;;;;;;5026978;28;20048;-60
2023/07/10 04:24:16;;;;;;;7.50;4.32;;;;;;;;;;5027025;28;20049;-61
2023/07/10 04:26:43;;;;;;;11.63;4.88;;;;;;;;;;5030830;28;20044;-64
2023/07/10 04:29:10;;;;;;;8.40;4.70;;;;;;;;;;5029687;28;20035;-65
2023/07/10 04:31:37;;;;;;;8.18;5.18;;;;;;;;;;5042439;28;21051;-65
2023/07/10 04:34:03;;;;;;;9.18;4.50;;;;;;;;;;5028772;28;20060;-62
2023/07/10 04:36:30;;;;;;;9.60;5.07;;;;;;;;;;5027617;28;20154;-64
2023/07/10 04:38:58;;;;;;;9.93;5.07;;;;;;;;;;5028312;28;20041;-62
2023/07/10 04:41:25;;;;;;;8.15;4.32;;;;;;;;;;5026819;28;20391;-63
2023/07/10 04:43:52;;;;;;;10.18;4.82;;;;;;;;;;5027334;28;20040;-62
2023/07/10 04:46:19;;;;;;;7.45;4.57;;;;;;;;;;5026768;28;20045;-62
2023/07/10 04:48:46;;;;;;;8.68;5.15;;;;;;;;;;5027510;28;20060;-63
2023/07/10 04:51:13;;;;;;;9.85;4.78;;;;;;;;;;5027067;28;20430;-63
2023/07/10 04:53:40;;;;;;;7.57;4.63;;;;;;;;;;5025730;28;20056;-63
2023/07/10 04:56:08;;;;;;;9.88;5.20;;;;;;;;;;5026093;28;20057;-62
2023/07/10 04:58:48;;;;;;;10.77;5.20;;;;;;;;;;5027438;28;20048;-65
2023/07/10 05:01:15;;;;;;;8.13;4.70;;;;;;;;;;5030240;28;20910;-64
2023/07/10 05:03:42;;;;;;;10.20;5.47;;;;;;;;;;5038587;28;20559;-61
2023/07/10 05:06:08;;;;;;;9.65;5.47;;;;;;;;;;5026056;28;20048;-62
2023/07/10 05:08:35;;;;;;;9.02;5.30;;;;;;;;;;5027345;28;20053;-62
2023/07/10 05:11:02;;;;;;;7.97;4.70;;;;;;;;;;5027277;28;20096;-63
2023/07/10 05:13:29;;;;;;;8.45;4.60;;;;;;;;;;5026555;28;20044;-63
2023/07/10 05:15:59;;;;;;;8.88;5.07;;;;;;;;;;5025407;28;20041;-62
2023/07/10 05:18:26;;;;;;;10.65;5.30;;;;;;;;;;5025372;28;20271;-62
2023/07/10 05:20:53;;;;;;;9.00;4.97;;;;;;;;;;5027195;28;20037;-62
2023/07/10 05:23:20;;;;;;;10.20;5.25;;;;;;;;;;5031095;28;20045;-62
2023/07/10 05:25:55;;;;;;;8.77;5.10;;;;;;;;;;5023324;28;20056;-63
2023/07/10 05:28:23;;;;;;;8.25;4.90;;;;;;;;;;5027007;28;20033;-63
2023/07/10 05:30:49;;;;;;;8.65;5.25;;;;;;;;;;5026365;28;20056;-62
2023/07/10 05:33:16;;;;;;;7.65;4.78;;;;;;;;;;5025631;28;20037;-62
2023/07/10 05:35:52;;;;;;;9.63;5.13;;;;;;;;;;5025616;28;20123;-63
2023/07/10 05:38:20;;;;;;;8.63;5.15;;;;;;;;;;5030197;28;20041;-61
2023/07/10 05:40:46;;;;;;;9.40;5.03;;;;;;;;;;5028567;28;20111;-63
2023/07/10 05:43:13;;;;;;;9.82;4.90;;;;;;;;;;5028911;28;20037;-63
2023/07/10 05:45:40;;;;;;;8.93;5.00;;;;;;;;;;5029920;28;20079;-62
2023/07/10 05:48:06;;;;;;;8.70;5.05;;;;;;;;;;5030791;28;20196;-63
2023/07/10 05:50:33;;;;;;;8.93;4.90;;;;;;;;;;5028572;28;21838;-62
2023/07/10 05:53:00;;;;;;;10.95;5.32;;;;;;;;;;5039602;28;20084;-61
2023/07/10 05:55:26;;;;;;;13.82;5.18;;;;;;;;;;5033562;28;20033;-63
2023/07/10 05:57:53;;;;;;;8.75;4.95;;;;;;;;;;5041287;28;20063;-63
2023/07/10 06:00:20;;;;;;;9.48;5.00;;;;;;;;;;5044978;28;20141;-63
2023/07/10 06:02:46;;;;;;;10.05;5.22;;;;;;;;;;5042148;28;20033;-63
2023/07/10 06:05:13;;;;;;;10.55;5.75;;;;;;;;;;5028088;28;20056;-62
2023/07/10 06:07:40;;;;;;;10.10;5.32;;;;;;;;;;5030104;28;20041;-62
2023/07/10 06:10:06;;;;;;;9.38;5.32;;;;;;;;;;5028759;28;20037;-63
2023/07/10 06:12:33;;;;;;;9.95;5.30;;;;;;;;;;5025481;28;20067;-63
2023/07/10 06:15:00;;;;;;;9.20;5.25;;;;;;;;;;5027584;28;20132;-62
2023/07/10 06:17:26;;;;;;;9.55;5.13;;;;;;;;;;5027572;28;20482;-62
2023/07/10 06:19:53;;;;;;;10.07;5.68;;;;;;;;;;5028063;28;20402;-61
2023/07/10 06:22:19;;;;;;;9.18;5.45;;;;;;;;;;5028941;28;20130;-60
2023/07/10 06:24:46;;;;;;;9.75;5.80;;;;;;;;;;5026546;28;20045;-63
2023/07/10 06:27:13;;;;;;;9.70;5.43;;;;;;;;;;5027829;28;20394;-62
2023/07/10 06:29:39;;;;;;;9.07;5.32;;;;;;;;;;5027026;28;20900;-61
2023/07/10 06:32:06;;;;;;;9.35;5.68;;;;;;;;;;5027966;28;20037;-64
2023/07/10 06:34:33;;;;;;;9.35;5.82;;;;;;;;;;5030983;28;20033;-62
2023/07/10 06:36:59;;;;;;;8.88;5.47;;;;;;;;;;5026759;28;20033;-62
2023/07/10 06:39:29;;;;;;;9.85;5.72;;;;;;;;;;5027065;28;20820;-64
2023/07/10 06:41:55;;;;;;;12.25;5.20;;;;;;;;;;5027652;28;20052;-61
2023/07/10 06:44:22;;;;;;;9.85;5.60;;;;;;;;;;5026745;28;20044;-63
2023/07/10 06:46:49;;;;;;;12.63;5.57;;;;;;;;;;5025231;28;20072;-63
2023/07/10 06:49:15;;;;;;;10.38;5.50;;;;;;;;;;5027506;28;20053;-63
2023/07/10 06:51:42;;;;;;;8.63;5.60;;;;;;;;;;5025899;28;25093;-63
2023/07/10 06:54:08;;;;;;;9.13;5.60;;;;;;;;;;5027260;28;20618;-63
2023/07/10 06:56:35;;;;;;;9.43;5.50;;;;;;;;;;5028807;28;20040;-63
2023/07/10 06:59:02;;;;;;;13.30;5.97;;;;;;;;;;5027270;28;20063;-63
2023/07/10 07:01:28;;;;;;;9.68;5.25;;;;;;;;;;5016231;28;20033;-63
2023/07/10 07:03:55;;;;;;;10.15;5.95;;;;;;;;;;5040582;28;20099;-63
2023/07/10 07:06:23;;;;;;;10.23;5.63;;;;;;;;;;5024727;28;20040;-63
2023/07/10 07:08:52;;;;;;;15.80;5.85;;;;;;;;;;5027254;28;20045;-62
2023/07/10 07:11:19;;;;;;;11.38;5.82;;;;;;;;;;5028159;28;20549;-61
2023/07/10 07:13:45;;;;;;;10.88;6.03;;;;;;;;;;5026046;28;20087;-62
2023/07/10 07:16:13;;;;;;;8.85;5.25;;;;;;;;;;5025597;28;20114;-62
2023/07/10 07:18:40;;;;;;;11.10;6.47;;;;;;;;;;5024617;28;20055;-62
2023/07/10 07:21:13;;;;;;;10.75;5.93;;;;;;;;;;5027909;28;20053;-63
2023/07/10 07:23:39;;;;;;;;;;;;;;;;;;5027232;28;20056;-64
2023/07/10 07:26:06;;;;;;;11.57;6.22;;;;;;;;;;5026791;28;22974;-63
2023/07/10 07:28:32;;;;;;;11.65;6.22;;;;;;;;;;5026182;28;20084;-61
2023/07/10 07:31:03;;;;;;;8.15;5.13;;;;;;;;;;5037210;28;20037;-63
2023/07/10 07:33:30;;;;;;;10.57;5.93;;;;;;;;;;5039845;28;20049;-63
2023/07/10 07:35:56;;;;;;;8.75;5.63;;;;;;;;;;5019062;28;20043;-64
2023/07/10 07:38:23;;;;;;;10.65;5.80;;;;;;;;;;5035921;28;20150;-68
2023/07/10 07:40:49;;;;;;;10.82;6.13;;;;;;;;;;5035985;28;20033;-63
2023/07/10 07:43:16;;;;;;;12.15;6.63;;;;;;;;;;5036709;28;20048;-64
2023/07/10 07:45:56;;;;;;;13.52;6.32;;;;;;;;;;5030922;28;20052;-65
2023/07/10 07:48:23;;;;;;;10.43;5.60;;;;;;;;;;5025402;28;20062;-64
2023/07/10 07:50:59;;;;;;;10.25;6.45;;;;;;;;;;5014092;28;20053;-63
2023/07/10 07:53:27;;;;;;;12.85;6.82;;;;;;;;;;5034830;28;20055;-61
2023/07/10 07:55:53;;;;;;;9.27;5.68;;;;;;;;;;5034578;28;20120;-64
2023/07/10 07:58:20;;;;;;;11.32;6.00;;;;;;;;;;5034651;28;20118;-63
2023/07/10 08:00:47;;;;;;;11.80;6.28;;;;;;;;;;5032605;28;20052;-64
2023/07/10 08:03:13;;;;;;;11.50;6.00;;;;;;;;;;5034758;28;20040;-64
2023/07/10 08:05:40;;;;;;;9.73;5.95;;;;;;;;;;5032430;28;20053;-64
2023/07/10 08:08:08;;;;;;;9.52;5.95;;;;;;;;;;5018321;28;20064;-61
2023/07/10 08:10:35;;;;;;;11.18;6.45;;;;;;;;;;5037507;28;20044;-61
2023/07/10 08:13:03;;;;;;;10.32;5.97;;;;;;;;;;5035406;28;20044;-63
2023/07/10 08:15:30;;;;;;;10.32;5.80;;;;;;;;;;5032588;28;20048;-64
2023/07/10 08:17:57;;;;;;;11.52;5.95;;;;;;;;;;5036725;28;20051;-63
2023/07/10 08:20:24;;;;;;;13.10;5.78;;;;;;;;;;5033858;28;20052;-61
2023/07/10 08:22:50;;;;;;;11.52;6.50;;;;;;;;;;5040825;28;20112;-64
2023/07/10 08:25:17;;;;;;;14.05;6.95;;;;;;;;;;5040116;28;20041;-62
2023/07/10 08:27:45;;;;;;;11.35;6.43;;;;;;;;;;5041873;28;20052;-62
2023/07/10 08:30:12;;;;;;;12.27;6.10;;;;;;;;;;5040846;28;20068;-62
2023/07/10 08:32:39;;;;;;;12.05;6.63;;;;;;;;;;5036338;28;20086;-61
2023/07/10 08:35:07;;;;;;;9.68;5.75;;;;;;;;;;5032197;28;20033;-62
2023/07/10 08:37:37;;;;;;;12.02;6.47;;;;;;;;;;5034384;28;20037;-61
2023/07/10 08:40:05;;;;;;;11.77;6.05;;;;;;;;;;5033509;28;20503;-66
2023/07/10 08:42:32;;;;;;;20.77;6.82;;;;;;;;;;5036164;28;20073;-62
2023/07/10 08:45:01;;;;;;;10.38;6.10;;;;;;;;;;5034055;28;20385;-62
2023/07/10 08:47:37;;;;;;;11.32;6.50;;;;;;;;;;5048410;28;20041;-62
2023/07/10 08:50:13;;;;;;;12.85;6.43;;;;;;;;;;5033494;28;20539;-63
2023/07/10 08:53:03;;;;;;;11.27;6.15;;;;;;;;;;5033543;28;20036;-62
2023/07/10 08:55:37;;;;;;;12.70;7.32;;;;;;;;;;5032603;28;20104;-64
2023/07/10 08:58:04;;;;;;;14.48;6.90;;;;;;;;;;5015819;28;21001;-64
2023/07/10 09:00:42;;;;;;;11.38;6.50;;;;;;;;;;5031529;28;20037;-60
2023/07/10 09:03:35;;;;;;;11.73;6.80;;;;;;;;;;5025142;28;20107;-62
2023/07/10 09:06:03;;;;;;;11.60;6.88;;;;;;;;;;5034485;28;20056;-61
2023/07/10 09:08:30;;;;;;;12.13;6.97;;;;;;;;;;5033302;28;20040;-62
2023/07/10 09:10:59;;;;;;;12.95;7.18;;;;;;;;;;5033358;28;20056;-63
2023/07/10 09:13:58;;;;;;;12.35;6.75;;;;;;;;;;5035124;28;20136;-63
2023/07/10 09:16:26;;;;;;;12.13;7.15;;;;;;;;;;4984994;28;20210;-63
2023/07/10 09:18:55;;;;;;;12.45;6.65;;;;;;;;;;4977307;28;20037;-64
2023/07/10 09:21:25;;;;;;;12.60;7.55;;;;;;;;;;5035965;28;20098;-63
2023/07/10 09:23:51;;;;;;;12.23;7.45;;;;;;;;;;5031257;28;20145;-66
2023/07/10 09:26:21;;;;;;;13.85;7.55;;;;;;;;;;5035358;28;20120;-64
2023/07/10 09:29:07;;;;;;;12.15;7.47;;;;;;;;;;5011340;28;20036;-62
2023/07/10 09:31:52;;;;;;;15.55;7.93;;;;;;;;;;5033106;28;20037;-63
2023/07/10 09:34:22;;;;;;;13.70;7.55;;;;;;;;;;5010100;28;20159;-63
2023/07/10 09:36:53;;;;;;;11.90;7.00;;;;;;;;;;5034350;28;20049;-63
2023/07/10 09:39:20;;;;;;;12.82;7.20;;;;;;;;;;5035827;28;20049;-63
2023/07/10 09:41:47;;;;;;;11.35;7.00;;;;;;;;;;5033032;28;20041;-63
2023/07/10 09:44:18;;;;;;;11.73;7.35;;;;;;;;;;5035269;28;20077;-63
2023/07/10 09:46:45;;;;;;;11.88;7.15;;;;;;;;;;5035896;28;20123;-65
2023/07/10 09:49:13;;;;;;;16.35;7.13;;;;;;;;;;5032642;28;20165;-62
2023/07/10 09:51:51;;;;;;;12.93;6.82;;;;;;;;;;5027581;28;22603;-64
2023/07/10 09:54:17;;;;;;;12.98;7.07;;;;;;;;;;5031395;28;20056;-64
2023/07/10 09:56:47;;;;;;;12.07;6.80;;;;;;;;;;5029026;28;20044;-63
2023/07/10 09:59:21;;;;;;;11.75;6.97;;;;;;;;;;5024817;28;20148;-63
2023/07/10 10:01:50;;;;;;;12.20;7.30;;;;;;;;;;5004949;28;20040;-63
2023/07/10 10:04:25;;;;;;;12.23;6.80;;;;;;;;;;5030454;28;20047;-63
2023/07/10 10:06:57;;;;;;;11.88;6.78;;;;;;;;;;5030474;28;20041;-63
2023/07/10 10:09:44;;;;;;;12.05;6.70;;;;;;;;;;4999845;28;20033;-65
2023/07/10 10:12:22;;;;;;;12.23;6.82;;;;;;;;;;5000236;28;20041;-63
2023/07/10 10:15:15;;;;;;;11.63;6.47;;;;;;;;;;4997713;28;20587;-62
2023/07/10 10:17:43;;;;;;;12.33;6.80;;;;;;;;;;4988674;28;20041;-64
2023/07/10 10:20:16;;;;;;;10.57;6.22;;;;;;;;;;5001405;28;20061;-64
2023/07/10 10:22:43;;;;;;;12.75;6.20;;;;;;;;;;4997573;28;20053;-63
2023/07/10 10:25:16;;;;;;;12.75;6.63;;;;;;;;;;5000660;28;20050;-61
2023/07/10 10:27:50;;;;;;;10.15;6.32;;;;;;;;;;4996602;28;20096;-62
2023/07/10 10:30:22;;;;;;;12.85;7.10;;;;;;;;;;4998205;28;20037;-61
2023/07/10 10:32:54;;;;;;;11.23;6.20;;;;;;;;;;5000805;28;20049;-61
2023/07/10 10:35:21;;;;;;;11.60;6.32;;;;;;;;;;5002679;28;20037;-65
2023/07/10 10:38:10;;;;;;;11.95;6.47;;;;;;;;;;4999180;28;20037;-63
2023/07/10 10:40:49;;;;;;;12.70;5.82;;;;;;;;;;5007943;28;20191;-62
2023/07/10 10:43:34;;;;;;;12.68;6.10;;;;;;;;;;5027932;28;20797;-62
2023/07/10 10:46:10;;;;;;;12.00;6.63;;;;;;;;;;5009967;28;20045;-62
2023/07/10 10:48:42;;;;;;;10.15;5.88;;;;;;;;;;5027324;28;20057;-62
2023/07/10 10:51:15;;;;;;;10.57;6.07;;;;;;;;;;5027895;28;20055;-62
2023/07/10 10:53:42;;;;;;;12.23;6.68;;;;;;;;;;5024306;28;20041;-62
2023/07/10 10:56:14;;;;;;;11.43;6.25;;;;;;;;;;5027373;28;20087;-60
2023/07/10 10:58:44;;;;;;;12.25;6.28;;;;;;;;;;5028572;28;20060;-62
2023/07/10 11:01:26;;;;;;;10.98;6.40;;;;;;;;;;5028294;28;20052;-61
2023/07/10 11:03:56;;;;;;;11.70;6.67;;;;;;;;;;5024590;28;20044;-62
2023/07/10 11:06:22;;;;;;;14.38;6.65;;;;;;;;;;5027781;28;20835;-63
2023/07/10 11:08:50;;;;;;;11.90;6.30;;;;;;;;;;5029497;28;20147;-62
2023/07/10 11:11:26;;;;;;;12.73;6.57;;;;;;;;;;5029028;28;20108;-61
2023/07/10 11:13:53;;;;;;;13.40;6.82;;;;;;;;;;5026752;28;20052;-61
2023/07/10 11:16:19;;;;;;;12.23;6.80;;;;;;;;;;5028381;28;20127;-63
2023/07/10 11:18:46;;;;;;;11.77;7.18;;;;;;;;;;5029432;28;20127;-62
2023/07/10 11:21:13;;;;;;;10.35;6.07;;;;;;;;;;5027535;28;20398;-61
2023/07/10 11:23:43;;;;;;;14.05;7.13;;;;;;;;;;5026164;28;20052;-61
2023/07/10 11:26:14;;;;;;;11.13;6.78;;;;;;;;;;5027988;28;20762;-61
2023/07/10 11:28:52;;;;;;;13.88;7.00;;;;;;;;;;5027584;28;20420;-61
2023/07/10 11:31:24;;;;;;;13.23;6.82;;;;;;;;;;5026739;28;20036;-62
2023/07/10 11:33:52;;;;;;;10.63;6.68;;;;;;;;;;5024580;28;20125;-61
2023/07/10 11:36:24;;;;;;;13.05;6.60;;;;;;;;;;5029216;28;20196;-62
2023/07/10 11:38:55;;;;;;;13.25;7.13;;;;;;;;;;5030342;28;20122;-61
2023/07/10 11:41:30;;;;;;;12.98;7.10;;;;;;;;;;5025830;28;20045;-62
2023/07/10 11:44:13;;;;;;;11.32;6.75;;;;;;;;;;5026041;28;20121;-63
2023/07/10 11:46:55;;;;;;;13.27;6.97;;;;;;;;;;5041226;28;20200;-62
2023/07/10 11:49:21;;;;;;;15.68;7.45;;;;;;;;;;5029470;28;20056;-61
2023/07/10 11:52:08;;;;;;;12.05;7.13;;;;;;;;;;5026453;28;20041;-61
2023/07/10 11:54:35;;;;;;;14.68;6.82;;;;;;;;;;5019119;28;20055;-62
2023/07/10 11:57:10;;;;;;;12.23;7.10;;;;;;;;;;5030039;28;20041;-62
2023/07/10 11:59:48;;;;;;;13.70;7.13;;;;;;;;;;5027758;28;20113;-61
2023/07/10 12:02:24;;;;;;;12.32;7.10;;;;;;;;;;5032271;28;20068;-62
2023/07/10 12:04:51;;;;;;;12.77;6.85;;;;;;;;;;5022066;28;20052;-63
2023/07/10 12:07:18;;;;;;;12.05;7.05;;;;;;;;;;5028976;28;20037;-62
2023/07/10 12:09:49;;;;;;;11.15;6.28;;;;;;;;;;5027328;28;20034;-61
2023/07/10 12:12:16;;;;;;;14.10;6.82;;;;;;;;;;5028514;28;20043;-61
2023/07/10 12:14:42;;;;;;;13.43;6.80;;;;;;;;;;5024298;28;22641;-61
2023/07/10 12:17:13;;;;;;;14.85;7.20;;;;;;;;;;5027098;28;20072;-61
2023/07/10 12:19:42;;;;;;;12.82;7.03;;;;;;;;;;5026755;28;21011;-63
2023/07/10 12:22:19;;;;;;;14.63;6.57;;;;;;;;;;5027060;28;20123;-59
2023/07/10 12:24:57;;;;;;;11.38;6.90;;;;;;;;;;5025915;28;20679;-63
2023/07/10 12:27:24;;;;;;;16.58;6.82;;;;;;;;;;5026878;28;20162;-63
2023/07/10 12:29:55;;;;;;;12.75;6.45;;;;;;;;;;5029710;28;20044;-63
2023/07/10 12:32:25;;;;;;;11.23;6.13;;;;;;;;;;5029768;28;20115;-64
2023/07/10 12:34:54;;;;;;;10.63;6.57;;;;;;;;;;5029135;28;20048;-66
2023/07/10 12:37:21;;;;;;;11.90;6.80;;;;;;;;;;5048896;28;20043;-64
2023/07/10 12:39:50;;;;;;;13.07;6.65;;;;;;;;;;5048154;28;20053;-62
2023/07/10 12:42:25;;;;;;;13.23;6.28;;;;;;;;;;5046524;28;20099;-64
2023/07/10 12:44:51;;;;;;;12.52;7.45;;;;;;;;;;5016240;28;20044;-62
2023/07/10 12:47:18;;;;;;;12.38;6.80;;;;;;;;;;5025566;28;20036;-63
2023/07/10 12:49:52;;;;;;;11.57;6.85;;;;;;;;;;5025807;28;20052;-63
2023/07/10 12:52:19;;;;;;;11.32;6.95;;;;;;;;;;5024960;28;20032;-64
2023/07/10 12:54:48;;;;;;;11.88;6.13;;;;;;;;;;5025268;28;20127;-64
2023/07/10 12:57:18;;;;;;;11.32;6.70;;;;;;;;;;5025058;28;20161;-66
2023/07/10 12:59:47;;;;;;;10.63;6.10;;;;;;;;;;5026959;28;20044;-64
2023/07/10 13:02:18;;;;;;;14.20;6.63;;;;;;;;;;5025052;28;20498;-65
2023/07/10 13:04:55;;;;;;;11.05;6.28;;;;;;;;;;5022679;28;20451;-65
2023/07/10 13:07:23;;;;;;;10.60;6.13;;;;;;;;;;5028155;28;20051;-65
2023/07/10 13:09:53;;;;;;;10.57;6.45;;;;;;;;;;5022947;28;20435;-64
2023/07/10 13:12:21;;;;;;;11.07;6.72;;;;;;;;;;5027501;28;20121;-65
2023/07/10 13:14:48;;;;;;;11.60;6.50;;;;;;;;;;5024401;28;23056;-65
2023/07/10 13:17:15;;;;;;;11.18;6.72;;;;;;;;;;5025317;28;20036;-66
2023/07/10 13:19:42;;;;;;;12.57;7.38;;;;;;;;;;5026330;28;20045;-65
2023/07/10 13:22:12;;;;;;;16.33;7.38;;;;;;;;;;5026301;28;20046;-64
2023/07/10 13:24:39;;;;;;;10.95;6.70;;;;;;;;;;5003260;28;20726;-63
2023/07/10 13:27:06;;;;;;;12.15;7.05;;;;;;;;;;5029181;28;20045;-63
2023/07/10 13:29:32;;;;;;;12.70;6.78;;;;;;;;;;5025877;28;20127;-63
2023/07/10 13:31:59;;;;;;;12.80;7.57;;;;;;;;;;5026291;28;20371;-64
2023/07/10 13:34:25;;;;;;;10.63;5.93;;;;;;;;;;5023240;28;20037;-65
2023/07/10 13:36:52;;;;;;;12.35;7.40;;;;;;;;;;5023202;28;20064;-65
2023/07/10 13:39:19;;;;;;;11.75;6.68;;;;;;;;;;5022439;28;20181;-65
2023/07/10 13:41:45;;;;;;;13.60;7.03;;;;;;;;;;5022430;28;20037;-65
2023/07/10 13:44:13;;;;;;;14.60;7.60;;;;;;;;;;5021741;28;20033;-64
2023/07/10 13:46:40;;;;;;;13.15;6.95;;;;;;;;;;5024961;28;20044;-64
2023/07/10 13:49:10;;;;;;;14.75;7.10;;;;;;;;;;5024585;28;20034;-63
2023/07/10 13:51:38;;;;;;;19.95;7.38;;;;;;;;;;5024748;28;20040;-64
2023/07/10 13:54:05;;;;;;;11.10;6.38;;;;;;;;;;5025616;28;20514;-65
2023/07/10 13:56:34;;;;;;;12.43;7.65;;;;;;;;;;5025275;28;20045;-64
2023/07/10 13:59:02;;;;;;;16.98;7.57;;;;;;;;;;5044841;28;20398;-64
2023/07/10 14:01:29;;;;;;;15.50;7.10;;;;;;;;;;5028207;28;20041;-63
2023/07/10 14:03:56;;;;;;;14.52;8.00;;;;;;;;;;5029046;28;20421;-67
2023/07/10 14:06:22;;;;;;;13.75;7.25;;;;;;;;;;5028181;28;20606;-65
2023/07/10 14:08:49;;;;;;;12.15;7.07;;;;;;;;;;5031520;28;20530;-65
2023/07/10 14:11:17;;;;;;;12.25;7.15;;;;;;;;;;5029960;28;20728;-64
2023/07/10 14:13:44;;;;;;;10.90;6.95;;;;;;;;;;5028750;28;20037;-64
2023/07/10 14:16:16;;;;;;;13.77;7.05;;;;;;;;;;5020156;28;20094;-65
2023/07/10 14:18:43;;;;;;;13.07;7.35;;;;;;;;;;5026852;28;20053;-65
2023/07/10 14:21:12;;;;;;;14.95;7.78;;;;;;;;;;5028174;28;20051;-63
2023/07/10 14:23:39;;;;;;;11.63;7.65;;;;;;;;;;5025643;28;20818;-65
2023/07/10 14:26:11;;;;;;;14.68;8.10;;;;;;;;;;5027266;28;20450;-64
2023/07/10 14:28:38;;;;;;;13.68;7.85;;;;;;;;;;5026080;28;20501;-65
2023/07/10 14:31:05;;;;;;;15.13;8.15;;;;;;;;;;5009885;28;20532;-64
2023/07/10 14:33:31;;;;;;;18.00;7.80;;;;;;;;;;5025481;28;20068;-65
2023/07/10 14:35:58;;;;;;;17.23;7.80;;;;;;;;;;5005341;28;20041;-65
2023/07/10 14:38:28;;;;;;;13.60;7.18;;;;;;;;;;5026967;28;20878;-65
2023/07/10 14:40:55;;;;;;;18.23;7.03;;;;;;;;;;5012770;28;20040;-65
2023/07/10 14:43:22;;;;;;;12.98;7.32;;;;;;;;;;5026435;28;20041;-65
2023/07/10 14:45:53;;;;;;;12.18;6.72;;;;;;;;;;5024990;28;20099;-64
2023/07/10 14:48:25;;;;;;;15.05;7.50;;;;;;;;;;5026719;28;20048;-65